Terminal Aerodrome Forecast
Issued by NWS

Home | Current Version | Previous Version | Text Only | Print | Product List | Glossary On
Versions: 1 2 3 4 5 6 7 8 9 10 11 12 13 14 15
080
FTUS44 KTSA 110322 AAA
TAFXNA
TAF AMD
KXNA 110322Z 1103/1124 18018G25KT P6SM OVC029
     FM111300 20013G22KT P6SM OVC015=

USA.gov is the U.S. government's official web portal to all federal, state and local government web resources and services.